sensor_id;sensor_type;location;lat;lon;timestamp;P1;durP1;ratioP1;P2;durP2;ratioP2
38615;SDS011;24370;51.986;4.666;2023-04-03T00:00:38;2.83;;;1.40;;
38615;SDS011;24370;51.986;4.666;2023-04-03T00:03:03;2.47;;;1.30;;
38615;SDS011;24370;51.986;4.666;2023-04-03T00:05:29;3.80;;;1.67;;
38615;SDS011;24370;51.986;4.666;2023-04-03T00:07:54;3.87;;;1.40;;
38615;SDS011;24370;51.986;4.666;2023-04-03T00:10:20;2.30;;;1.30;;
38615;SDS011;24370;51.986;4.666;2023-04-03T00:12:46;4.90;;;1.53;;
38615;SDS011;24370;51.986;4.666;2023-04-03T00:15:11;2.90;;;1.03;;
38615;SDS011;24370;51.986;4.666;2023-04-03T00:17:37;3.37;;;1.13;;
38615;SDS011;24370;51.986;4.666;2023-04-03T00:20:03;4.00;;;2.23;;
38615;SDS011;24370;51.986;4.666;2023-04-03T00:22:30;2.17;;;1.50;;
38615;SDS011;24370;51.986;4.666;2023-04-03T00:24:56;4.67;;;1.73;;
38615;SDS011;24370;51.986;4.666;2023-04-03T00:27:21;3.10;;;1.37;;
38615;SDS011;24370;51.986;4.666;2023-04-03T00:29:47;2.17;;;1.10;;
38615;SDS011;24370;51.986;4.666;2023-04-03T00:32:12;2.17;;;1.37;;
38615;SDS011;24370;51.986;4.666;2023-04-03T00:34:38;1.87;;;1.57;;
38615;SDS011;24370;51.986;4.666;2023-04-03T00:37:03;3.57;;;1.60;;
38615;SDS011;24370;51.986;4.666;2023-04-03T00:39:29;2.13;;;1.23;;
38615;SDS011;24370;51.986;4.666;2023-04-03T00:41:55;2.50;;;1.70;;
38615;SDS011;24370;51.986;4.666;2023-04-03T00:44:21;4.10;;;1.50;;
38615;SDS011;24370;51.986;4.666;2023-04-03T00:47:11;5.43;;;1.37;;
38615;SDS011;24370;51.986;4.666;2023-04-03T00:49:40;5.37;;;1.33;;
38615;SDS011;24370;51.986;4.666;2023-04-03T00:52:08;4.47;;;1.40;;
38615;SDS011;24370;51.986;4.666;2023-04-03T00:54:37;6.97;;;1.57;;
38615;SDS011;24370;51.986;4.666;2023-04-03T00:57:05;2.67;;;1.27;;
38615;SDS011;24370;51.986;4.666;2023-04-03T00:59:33;2.73;;;1.77;;
38615;SDS011;24370;51.986;4.666;2023-04-03T01:02:04;2.17;;;1.33;;
38615;SDS011;24370;51.986;4.666;2023-04-03T01:04:31;2.73;;;1.43;;
38615;SDS011;24370;51.986;4.666;2023-04-03T01:06:57;2.37;;;1.40;;
38615;SDS011;24370;51.986;4.666;2023-04-03T01:09:26;4.00;;;1.50;;
38615;SDS011;24370;51.986;4.666;2023-04-03T01:11:53;4.07;;;1.63;;
38615;SDS011;24370;51.986;4.666;2023-04-03T01:14:18;2.83;;;1.77;;
38615;SDS011;24370;51.986;4.666;2023-04-03T01:16:51;4.30;;;1.23;;
38615;SDS011;24370;51.986;4.666;2023-04-03T01:19:19;3.77;;;2.13;;
38615;SDS011;24370;51.986;4.666;2023-04-03T01:24:39;2.17;;;1.40;;
38615;SDS011;24370;51.986;4.666;2023-04-03T01:27:05;4.77;;;1.67;;
38615;SDS011;24370;51.986;4.666;2023-04-03T01:29:34;2.40;;;1.70;;
38615;SDS011;24370;51.986;4.666;2023-04-03T01:32:00;2.23;;;1.50;;
38615;SDS011;24370;51.986;4.666;2023-04-03T01:34:26;2.90;;;1.37;;
38615;SDS011;24370;51.986;4.666;2023-04-03T01:36:53;3.53;;;1.70;;
38615;SDS011;24370;51.986;4.666;2023-04-03T01:39:19;3.77;;;1.70;;
38615;SDS011;24370;51.986;4.666;2023-04-03T01:41:44;4.00;;;1.67;;
38615;SDS011;24370;51.986;4.666;2023-04-03T01:44:10;2.10;;;1.40;;
38615;SDS011;24370;51.986;4.666;2023-04-03T01:46:36;2.77;;;1.50;;
38615;SDS011;24370;51.986;4.666;2023-04-03T01:49:02;5.37;;;1.87;;
38615;SDS011;24370;51.986;4.666;2023-04-03T01:51:29;3.53;;;1.63;;
38615;SDS011;24370;51.986;4.666;2023-04-03T01:53:55;2.17;;;1.40;;
38615;SDS011;24370;51.986;4.666;2023-04-03T01:56:20;5.20;;;1.50;;
38615;SDS011;24370;51.986;4.666;2023-04-03T01:58:46;1.93;;;1.63;;
38615;SDS011;24370;51.986;4.666;2023-04-03T02:01:11;3.40;;;1.77;;
38615;SDS011;24370;51.986;4.666;2023-04-03T02:03:36;3.03;;;1.50;;
38615;SDS011;24370;51.986;4.666;2023-04-03T02:06:02;3.80;;;1.50;;
38615;SDS011;24370;51.986;4.666;2023-04-03T02:08:27;2.83;;;1.53;;
38615;SDS011;24370;51.986;4.666;2023-04-03T02:10:53;3.33;;;2.03;;
38615;SDS011;24370;51.986;4.666;2023-04-03T02:13:18;5.30;;;1.90;;
38615;SDS011;24370;51.986;4.666;2023-04-03T02:15:44;2.87;;;1.60;;
38615;SDS011;24370;51.986;4.666;2023-04-03T02:18:10;5.17;;;1.70;;
38615;SDS011;24370;51.986;4.666;2023-04-03T02:20:36;3.13;;;1.40;;
38615;SDS011;24370;51.986;4.666;2023-04-03T02:23:02;3.03;;;1.80;;
38615;SDS011;24370;51.986;4.666;2023-04-03T02:25:28;4.37;;;1.60;;
38615;SDS011;24370;51.986;4.666;2023-04-03T02:27:54;2.33;;;1.60;;
38615;SDS011;24370;51.986;4.666;2023-04-03T02:30:20;2.47;;;1.50;;
38615;SDS011;24370;51.986;4.666;2023-04-03T02:32:45;5.03;;;2.53;;
38615;SDS011;24370;51.986;4.666;2023-04-03T02:35:11;4.57;;;1.47;;
38615;SDS011;24370;51.986;4.666;2023-04-03T02:37:37;5.73;;;1.70;;
38615;SDS011;24370;51.986;4.666;2023-04-03T02:40:02;2.97;;;1.67;;
38615;SDS011;24370;51.986;4.666;2023-04-03T02:42:29;5.23;;;1.83;;
38615;SDS011;24370;51.986;4.666;2023-04-03T02:44:54;4.07;;;1.70;;
38615;SDS011;24370;51.986;4.666;2023-04-03T02:47:20;3.57;;;1.83;;
38615;SDS011;24370;51.986;4.666;2023-04-03T02:49:46;5.00;;;1.63;;
38615;SDS011;24370;51.986;4.666;2023-04-03T02:52:12;3.73;;;1.90;;
38615;SDS011;24370;51.986;4.666;2023-04-03T02:54:38;4.17;;;1.70;;
38615;SDS011;24370;51.986;4.666;2023-04-03T02:57:03;2.70;;;1.80;;
38615;SDS011;24370;51.986;4.666;2023-04-03T02:59:29;3.73;;;2.30;;
38615;SDS011;24370;51.986;4.666;2023-04-03T03:01:55;5.40;;;1.90;;
38615;SDS011;24370;51.986;4.666;2023-04-03T03:04:20;5.83;;;1.93;;
38615;SDS011;24370;51.986;4.666;2023-04-03T03:06:46;5.97;;;2.23;;
38615;SDS011;24370;51.986;4.666;2023-04-03T03:09:12;4.80;;;1.70;;
38615;SDS011;24370;51.986;4.666;2023-04-03T03:11:38;4.67;;;1.80;;
38615;SDS011;24370;51.986;4.666;2023-04-03T03:14:04;4.00;;;2.17;;
38615;SDS011;24370;51.986;4.666;2023-04-03T03:16:29;3.67;;;1.83;;
38615;SDS011;24370;51.986;4.666;2023-04-03T03:18:55;3.53;;;1.67;;
38615;SDS011;24370;51.986;4.666;2023-04-03T03:21:20;5.00;;;1.67;;
38615;SDS011;24370;51.986;4.666;2023-04-03T03:23:46;3.77;;;1.87;;
38615;SDS011;24370;51.986;4.666;2023-04-03T03:26:11;3.97;;;1.73;;
38615;SDS011;24370;51.986;4.666;2023-04-03T03:28:37;6.13;;;1.80;;
38615;SDS011;24370;51.986;4.666;2023-04-03T03:31:04;6.90;;;1.90;;
38615;SDS011;24370;51.986;4.666;2023-04-03T03:33:30;4.30;;;1.80;;
38615;SDS011;24370;51.986;4.666;2023-04-03T03:35:56;3.40;;;1.77;;
38615;SDS011;24370;51.986;4.666;2023-04-03T03:38:22;6.20;;;2.50;;
38615;SDS011;24370;51.986;4.666;2023-04-03T03:40:49;4.87;;;1.50;;
38615;SDS011;24370;51.986;4.666;2023-04-03T03:43:16;7.10;;;1.97;;
38615;SDS011;24370;51.986;4.666;2023-04-03T03:45:41;6.10;;;1.87;;
38615;SDS011;24370;51.986;4.666;2023-04-03T03:48:07;6.03;;;2.03;;
38615;SDS011;24370;51.986;4.666;2023-04-03T03:50:32;2.43;;;1.83;;
38615;SDS011;24370;51.986;4.666;2023-04-03T03:52:58;4.13;;;2.50;;
38615;SDS011;24370;51.986;4.666;2023-04-03T03:55:23;5.63;;;2.20;;
38615;SDS011;24370;51.986;4.666;2023-04-03T03:57:49;6.50;;;1.70;;
38615;SDS011;24370;51.986;4.666;2023-04-03T04:00:14;3.97;;;2.40;;
38615;SDS011;24370;51.986;4.666;2023-04-03T04:02:41;3.17;;;2.20;;
38615;SDS011;24370;51.986;4.666;2023-04-03T04:05:06;4.80;;;1.73;;
38615;SDS011;24370;51.986;4.666;2023-04-03T04:07:32;5.57;;;1.70;;
38615;SDS011;24370;51.986;4.666;2023-04-03T04:09:57;5.57;;;1.60;;
38615;SDS011;24370;51.986;4.666;2023-04-03T04:12:22;4.47;;;2.13;;
38615;SDS011;24370;51.986;4.666;2023-04-03T04:14:48;3.50;;;1.80;;
38615;SDS011;24370;51.986;4.666;2023-04-03T04:17:14;4.77;;;1.80;;
38615;SDS011;24370;51.986;4.666;2023-04-03T04:19:39;3.60;;;1.80;;
38615;SDS011;24370;51.986;4.666;2023-04-03T04:22:05;3.27;;;1.90;;
38615;SDS011;24370;51.986;4.666;2023-04-03T04:24:30;4.53;;;2.17;;
38615;SDS011;24370;51.986;4.666;2023-04-03T04:26:55;6.03;;;2.07;;
38615;SDS011;24370;51.986;4.666;2023-04-03T04:29:21;5.67;;;2.20;;
38615;SDS011;24370;51.986;4.666;2023-04-03T04:31:46;5.73;;;2.27;;
38615;SDS011;24370;51.986;4.666;2023-04-03T04:34:11;5.20;;;1.93;;
38615;SDS011;24370;51.986;4.666;2023-04-03T04:36:38;4.90;;;1.77;;
38615;SDS011;24370;51.986;4.666;2023-04-03T04:39:04;5.00;;;2.00;;
38615;SDS011;24370;51.986;4.666;2023-04-03T04:41:30;4.80;;;2.43;;
38615;SDS011;24370;51.986;4.666;2023-04-03T04:43:55;4.23;;;2.03;;
38615;SDS011;24370;51.986;4.666;2023-04-03T04:46:21;7.63;;;2.27;;
38615;SDS011;24370;51.986;4.666;2023-04-03T04:48:47;4.53;;;2.20;;
38615;SDS011;24370;51.986;4.666;2023-04-03T04:51:13;6.07;;;2.17;;
38615;SDS011;24370;51.986;4.666;2023-04-03T04:53:39;5.87;;;1.93;;
38615;SDS011;24370;51.986;4.666;2023-04-03T04:56:04;10.57;;;2.50;;
38615;SDS011;24370;51.986;4.666;2023-04-03T04:58:30;4.93;;;3.00;;
38615;SDS011;24370;51.986;4.666;2023-04-03T05:00:59;4.10;;;2.17;;
38615;SDS011;24370;51.986;4.666;2023-04-03T05:03:28;4.77;;;2.50;;
38615;SDS011;24370;51.986;4.666;2023-04-03T05:05:54;7.50;;;2.50;;
38615;SDS011;24370;51.986;4.666;2023-04-03T05:08:20;7.20;;;2.30;;
38615;SDS011;24370;51.986;4.666;2023-04-03T05:10:46;3.83;;;2.07;;
38615;SDS011;24370;51.986;4.666;2023-04-03T05:13:11;4.27;;;2.70;;
38615;SDS011;24370;51.986;4.666;2023-04-03T05:15:37;3.47;;;2.10;;
38615;SDS011;24370;51.986;4.666;2023-04-03T05:18:02;5.60;;;2.20;;
38615;SDS011;24370;51.986;4.666;2023-04-03T05:20:31;4.50;;;2.47;;
38615;SDS011;24370;51.986;4.666;2023-04-03T05:22:58;4.27;;;2.53;;
38615;SDS011;24370;51.986;4.666;2023-04-03T05:25:23;6.77;;;2.23;;
38615;SDS011;24370;51.986;4.666;2023-04-03T05:27:49;5.30;;;2.17;;
38615;SDS011;24370;51.986;4.666;2023-04-03T05:30:14;5.80;;;2.03;;
38615;SDS011;24370;51.986;4.666;2023-04-03T05:32:40;5.37;;;2.27;;
38615;SDS011;24370;51.986;4.666;2023-04-03T05:35:06;6.00;;;2.50;;
38615;SDS011;24370;51.986;4.666;2023-04-03T05:37:32;9.40;;;2.33;;
38615;SDS011;24370;51.986;4.666;2023-04-03T05:39:58;5.40;;;2.37;;
38615;SDS011;24370;51.986;4.666;2023-04-03T05:42:23;6.20;;;2.43;;
38615;SDS011;24370;51.986;4.666;2023-04-03T05:44:49;5.73;;;2.27;;
38615;SDS011;24370;51.986;4.666;2023-04-03T05:47:15;3.57;;;2.27;;
38615;SDS011;24370;51.986;4.666;2023-04-03T05:49:41;6.63;;;2.60;;
38615;SDS011;24370;51.986;4.666;2023-04-03T05:52:28;4.43;;;2.43;;
38615;SDS011;24370;51.986;4.666;2023-04-03T05:54:54;8.47;;;2.50;;
38615;SDS011;24370;51.986;4.666;2023-04-03T05:57:20;5.50;;;2.40;;
38615;SDS011;24370;51.986;4.666;2023-04-03T05:59:46;8.60;;;2.37;;
38615;SDS011;24370;51.986;4.666;2023-04-03T06:02:13;9.47;;;2.90;;
38615;SDS011;24370;51.986;4.666;2023-04-03T06:04:40;9.73;;;2.43;;
38615;SDS011;24370;51.986;4.666;2023-04-03T06:07:06;7.60;;;3.40;;
38615;SDS011;24370;51.986;4.666;2023-04-03T06:09:35;7.90;;;2.60;;
38615;SDS011;24370;51.986;4.666;2023-04-03T06:12:01;7.30;;;2.77;;
38615;SDS011;24370;51.986;4.666;2023-04-03T06:14:27;7.43;;;2.97;;
38615;SDS011;24370;51.986;4.666;2023-04-03T06:16:52;9.10;;;2.77;;
38615;SDS011;24370;51.986;4.666;2023-04-03T06:19:19;8.03;;;2.70;;
38615;SDS011;24370;51.986;4.666;2023-04-03T06:21:45;5.23;;;2.83;;
38615;SDS011;24370;51.986;4.666;2023-04-03T06:24:12;9.20;;;2.53;;
38615;SDS011;24370;51.986;4.666;2023-04-03T06:26:40;8.50;;;2.53;;
38615;SDS011;24370;51.986;4.666;2023-04-03T06:29:07;3.40;;;2.27;;
38615;SDS011;24370;51.986;4.666;2023-04-03T06:31:32;3.97;;;2.30;;
38615;SDS011;24370;51.986;4.666;2023-04-03T06:33:58;9.33;;;3.07;;
38615;SDS011;24370;51.986;4.666;2023-04-03T06:36:23;6.27;;;2.60;;
38615;SDS011;24370;51.986;4.666;2023-04-03T06:38:49;8.20;;;2.60;;
38615;SDS011;24370;51.986;4.666;2023-04-03T06:41:14;7.47;;;2.83;;
38615;SDS011;24370;51.986;4.666;2023-04-03T06:43:41;6.80;;;2.57;;
38615;SDS011;24370;51.986;4.666;2023-04-03T06:46:10;8.60;;;2.77;;
38615;SDS011;24370;51.986;4.666;2023-04-03T06:48:44;6.10;;;2.33;;
38615;SDS011;24370;51.986;4.666;2023-04-03T06:51:17;10.47;;;2.60;;
38615;SDS011;24370;51.986;4.666;2023-04-03T06:53:45;5.77;;;2.20;;
38615;SDS011;24370;51.986;4.666;2023-04-03T06:56:11;7.90;;;2.77;;
38615;SDS011;24370;51.986;4.666;2023-04-03T06:58:37;9.00;;;2.43;;
38615;SDS011;24370;51.986;4.666;2023-04-03T07:01:03;7.37;;;2.83;;
38615;SDS011;24370;51.986;4.666;2023-04-03T07:03:29;8.40;;;2.77;;
38615;SDS011;24370;51.986;4.666;2023-04-03T07:05:55;9.00;;;2.83;;
38615;SDS011;24370;51.986;4.666;2023-04-03T07:08:20;5.73;;;2.23;;
38615;SDS011;24370;51.986;4.666;2023-04-03T07:10:46;6.17;;;2.30;;
38615;SDS011;24370;51.986;4.666;2023-04-03T07:13:11;7.37;;;2.33;;
38615;SDS011;24370;51.986;4.666;2023-04-03T07:15:37;5.83;;;2.77;;
38615;SDS011;24370;51.986;4.666;2023-04-03T07:18:02;8.70;;;2.27;;
38615;SDS011;24370;51.986;4.666;2023-04-03T07:20:29;9.00;;;2.00;;
38615;SDS011;24370;51.986;4.666;2023-04-03T07:22:54;11.30;;;3.40;;
38615;SDS011;24370;51.986;4.666;2023-04-03T07:25:20;6.77;;;2.30;;
38615;SDS011;24370;51.986;4.666;2023-04-03T07:27:45;4.33;;;2.00;;
38615;SDS011;24370;51.986;4.666;2023-04-03T07:30:11;8.90;;;2.40;;
38615;SDS011;24370;51.986;4.666;2023-04-03T07:32:38;7.23;;;3.07;;
38615;SDS011;24370;51.986;4.666;2023-04-03T07:35:04;9.87;;;2.30;;
38615;SDS011;24370;51.986;4.666;2023-04-03T07:37:30;6.57;;;1.93;;
38615;SDS011;24370;51.986;4.666;2023-04-03T07:39:55;4.13;;;1.93;;
38615;SDS011;24370;51.986;4.666;2023-04-03T07:42:22;6.67;;;1.83;;
38615;SDS011;24370;51.986;4.666;2023-04-03T07:44:47;6.70;;;2.00;;
38615;SDS011;24370;51.986;4.666;2023-04-03T07:47:12;8.70;;;1.80;;
38615;SDS011;24370;51.986;4.666;2023-04-03T07:49:41;6.73;;;1.70;;
38615;SDS011;24370;51.986;4.666;2023-04-03T07:52:06;4.77;;;2.03;;
38615;SDS011;24370;51.986;4.666;2023-04-03T07:54:33;3.53;;;1.40;;
38615;SDS011;24370;51.986;4.666;2023-04-03T07:56:58;4.73;;;1.80;;
38615;SDS011;24370;51.986;4.666;2023-04-03T07:59:24;1.97;;;1.30;;
38615;SDS011;24370;51.986;4.666;2023-04-03T08:01:49;5.97;;;1.90;;
38615;SDS011;24370;51.986;4.666;2023-04-03T08:04:15;5.00;;;2.50;;
38615;SDS011;24370;51.986;4.666;2023-04-03T08:06:40;5.63;;;1.60;;
38615;SDS011;24370;51.986;4.666;2023-04-03T08:09:05;7.03;;;2.58;;
38615;SDS011;24370;51.986;4.666;2023-04-03T08:11:31;5.63;;;1.70;;
38615;SDS011;24370;51.986;4.666;2023-04-03T08:13:56;5.85;;;1.80;;
38615;SDS011;24370;51.986;4.666;2023-04-03T08:16:22;4.82;;;1.70;;
38615;SDS011;24370;51.986;4.666;2023-04-03T08:18:50;4.35;;;1.63;;
38615;SDS011;24370;51.986;4.666;2023-04-03T08:21:16;6.35;;;1.90;;
38615;SDS011;24370;51.986;4.666;2023-04-03T08:23:42;5.50;;;1.90;;
38615;SDS011;24370;51.986;4.666;2023-04-03T08:26:14;4.13;;;1.65;;
38615;SDS011;24370;51.986;4.666;2023-04-03T08:28:41;7.53;;;1.70;;
38615;SDS011;24370;51.986;4.666;2023-04-03T08:31:09;6.28;;;1.73;;
38615;SDS011;24370;51.986;4.666;2023-04-03T08:33:36;5.28;;;1.85;;
38615;SDS011;24370;51.986;4.666;2023-04-03T08:36:03;4.35;;;1.75;;
38615;SDS011;24370;51.986;4.666;2023-04-03T08:38:30;3.97;;;1.50;;
38615;SDS011;24370;51.986;4.666;2023-04-03T08:41:00;7.20;;;1.73;;
38615;SDS011;24370;51.986;4.666;2023-04-03T08:46:26;4.38;;;1.60;;
38615;SDS011;24370;51.986;4.666;2023-04-03T08:49:07;3.13;;;1.17;;
38615;SDS011;24370;51.986;4.666;2023-04-03T08:51:48;2.08;;;1.10;;
38615;SDS011;24370;51.986;4.666;2023-04-03T08:54:23;3.58;;;1.65;;
38615;SDS011;24370;51.986;4.666;2023-04-03T08:56:55;4.50;;;1.35;;
38615;SDS011;24370;51.986;4.666;2023-04-03T08:59:26;6.15;;;1.38;;
38615;SDS011;24370;51.986;4.666;2023-04-03T09:01:56;2.80;;;1.13;;
38615;SDS011;24370;51.986;4.666;2023-04-03T09:04:23;2.95;;;1.27;;
38615;SDS011;24370;51.986;4.666;2023-04-03T09:06:56;5.43;;;1.25;;
38615;SDS011;24370;51.986;4.666;2023-04-03T09:09:34;4.78;;;1.60;;
38615;SDS011;24370;51.986;4.666;2023-04-03T09:14:49;4.70;;;1.10;;
38615;SDS011;24370;51.986;4.666;2023-04-03T09:22:27;4.40;;;1.13;;
38615;SDS011;24370;51.986;4.666;2023-04-03T09:27:25;5.60;;;1.38;;
38615;SDS011;24370;51.986;4.666;2023-04-03T09:29:51;3.50;;;1.05;;
38615;SDS011;24370;51.986;4.666;2023-04-03T09:34:59;3.67;;;1.27;;
38615;SDS011;24370;51.986;4.666;2023-04-03T09:37:36;2.90;;;1.10;;
38615;SDS011;24370;51.986;4.666;2023-04-03T09:42:49;3.53;;;0.82;;
38615;SDS011;24370;51.986;4.666;2023-04-03T09:45:23;1.75;;;0.65;;
38615;SDS011;24370;51.986;4.666;2023-04-03T09:48:04;1.63;;;0.85;;
38615;SDS011;24370;51.986;4.666;2023-04-03T09:50:32;2.65;;;0.90;;
38615;SDS011;24370;51.986;4.666;2023-04-03T09:52:59;2.03;;;1.05;;
38615;SDS011;24370;51.986;4.666;2023-04-03T09:57:59;2.70;;;0.98;;
38615;SDS011;24370;51.986;4.666;2023-04-03T10:03:03;2.75;;;0.70;;
38615;SDS011;24370;51.986;4.666;2023-04-03T10:08:10;1.83;;;0.68;;
38615;SDS011;24370;51.986;4.666;2023-04-03T10:10:45;3.35;;;0.90;;
38615;SDS011;24370;51.986;4.666;2023-04-03T10:13:18;2.38;;;0.60;;
38615;SDS011;24370;51.986;4.666;2023-04-03T10:15:56;1.92;;;0.60;;
38615;SDS011;24370;51.986;4.666;2023-04-03T10:21:55;1.42;;;0.88;;
38615;SDS011;24370;51.986;4.666;2023-04-03T10:29:25;1.55;;;0.57;;
38615;SDS011;24370;51.986;4.666;2023-04-03T10:34:45;1.52;;;0.55;;
38615;SDS011;24370;51.986;4.666;2023-04-03T10:50:00;1.80;;;0.63;;
38615;SDS011;24370;51.986;4.666;2023-04-03T10:57:20;0.82;;;0.50;;
38615;SDS011;24370;51.986;4.666;2023-04-03T11:00:33;1.30;;;0.75;;
38615;SDS011;24370;51.986;4.666;2023-04-03T11:02:54;0.95;;;0.60;;
38615;SDS011;24370;51.986;4.666;2023-04-03T11:08:24;1.88;;;0.60;;
38615;SDS011;24370;51.986;4.666;2023-04-03T11:11:09;1.80;;;0.60;;
38615;SDS011;24370;51.986;4.666;2023-04-03T11:16:16;2.00;;;0.52;;
38615;SDS011;24370;51.986;4.666;2023-04-03T11:18:48;2.80;;;0.65;;
38615;SDS011;24370;51.986;4.666;2023-04-03T11:21:20;1.08;;;0.63;;
38615;SDS011;24370;51.986;4.666;2023-04-03T11:23:54;0.38;;;0.38;;
38615;SDS011;24370;51.986;4.666;2023-04-03T11:26:24;0.40;;;0.35;;
38615;SDS011;24370;51.986;4.666;2023-04-03T11:28:56;0.70;;;0.40;;
38615;SDS011;24370;51.986;4.666;2023-04-03T11:31:29;1.60;;;0.40;;
38615;SDS011;24370;51.986;4.666;2023-04-03T11:36:53;0.43;;;0.40;;
38615;SDS011;24370;51.986;4.666;2023-04-03T11:39:25;0.82;;;0.40;;
38615;SDS011;24370;51.986;4.666;2023-04-03T11:41:55;0.65;;;0.50;;
38615;SDS011;24370;51.986;4.666;2023-04-03T11:47:49;2.05;;;0.50;;
38615;SDS011;24370;51.986;4.666;2023-04-03T11:50:32;0.90;;;0.50;;
38615;SDS011;24370;51.986;4.666;2023-04-03T12:08:36;0.50;;;0.47;;
38615;SDS011;24370;51.986;4.666;2023-04-03T12:13:42;2.25;;;0.60;;
38615;SDS011;24370;51.986;4.666;2023-04-03T12:48:30;1.15;;;1.10;;
38615;SDS011;24370;51.986;4.666;2023-04-03T12:50:57;2.92;;;0.80;;
38615;SDS011;24370;51.986;4.666;2023-04-03T12:53:28;1.45;;;0.70;;
38615;SDS011;24370;51.986;4.666;2023-04-03T12:56:19;2.92;;;0.75;;
38615;SDS011;24370;51.986;4.666;2023-04-03T12:58:48;2.28;;;0.90;;
38615;SDS011;24370;51.986;4.666;2023-04-03T13:01:20;4.43;;;1.08;;
38615;SDS011;24370;51.986;4.666;2023-04-03T13:03:49;16.13;;;1.25;;
38615;SDS011;24370;51.986;4.666;2023-04-03T13:06:21;2.47;;;0.82;;
38615;SDS011;24370;51.986;4.666;2023-04-03T13:08:56;2.70;;;0.90;;
38615;SDS011;24370;51.986;4.666;2023-04-03T13:11:30;2.05;;;1.00;;
38615;SDS011;24370;51.986;4.666;2023-04-03T13:14:01;4.07;;;1.20;;
38615;SDS011;24370;51.986;4.666;2023-04-03T13:16:30;2.10;;;0.75;;
38615;SDS011;24370;51.986;4.666;2023-04-03T13:18:57;2.80;;;1.15;;
38615;SDS011;24370;51.986;4.666;2023-04-03T13:21:28;1.65;;;0.90;;
38615;SDS011;24370;51.986;4.666;2023-04-03T13:23:57;4.43;;;0.95;;
38615;SDS011;24370;51.986;4.666;2023-04-03T13:26:26;1.90;;;0.70;;
38615;SDS011;24370;51.986;4.666;2023-04-03T13:28:56;6.93;;;1.17;;
38615;SDS011;24370;51.986;4.666;2023-04-03T13:31:26;5.03;;;0.77;;
38615;SDS011;24370;51.986;4.666;2023-04-03T13:33:57;3.37;;;0.80;;
38615;SDS011;24370;51.986;4.666;2023-04-03T13:36:31;1.58;;;0.80;;
38615;SDS011;24370;51.986;4.666;2023-04-03T13:41:28;5.97;;;0.83;;
38615;SDS011;24370;51.986;4.666;2023-04-03T13:43:54;1.67;;;0.80;;
38615;SDS011;24370;51.986;4.666;2023-04-03T13:48:46;2.87;;;0.83;;
38615;SDS011;24370;51.986;4.666;2023-04-03T13:51:17;3.17;;;1.17;;
38615;SDS011;24370;51.986;4.666;2023-04-03T13:53:47;2.40;;;0.70;;
38615;SDS011;24370;51.986;4.666;2023-04-03T13:56:21;1.27;;;0.97;;
38615;SDS011;24370;51.986;4.666;2023-04-03T13:59:00;1.53;;;0.90;;
38615;SDS011;24370;51.986;4.666;2023-04-03T14:01:43;1.40;;;0.88;;
38615;SDS011;24370;51.986;4.666;2023-04-03T14:04:18;1.70;;;0.83;;
38615;SDS011;24370;51.986;4.666;2023-04-03T14:06:46;4.60;;;1.47;;
38615;SDS011;24370;51.986;4.666;2023-04-03T14:09:13;2.50;;;0.80;;
38615;SDS011;24370;51.986;4.666;2023-04-03T14:11:40;3.77;;;1.20;;
38615;SDS011;24370;51.986;4.666;2023-04-03T14:14:10;2.17;;;0.80;;
38615;SDS011;24370;51.986;4.666;2023-04-03T14:16:40;5.70;;;0.97;;
38615;SDS011;24370;51.986;4.666;2023-04-03T14:19:13;2.50;;;0.90;;
38615;SDS011;24370;51.986;4.666;2023-04-03T14:21:43;0.83;;;0.70;;
38615;SDS011;24370;51.986;4.666;2023-04-03T14:24:09;2.77;;;0.80;;
38615;SDS011;24370;51.986;4.666;2023-04-03T14:26:36;3.57;;;1.20;;
38615;SDS011;24370;51.986;4.666;2023-04-03T14:29:02;2.27;;;0.70;;
38615;SDS011;24370;51.986;4.666;2023-04-03T14:31:27;1.10;;;0.80;;
38615;SDS011;24370;51.986;4.666;2023-04-03T14:33:53;1.20;;;0.87;;
38615;SDS011;24370;51.986;4.666;2023-04-03T14:36:22;1.70;;;0.90;;
38615;SDS011;24370;51.986;4.666;2023-04-03T14:38:50;2.33;;;0.73;;
38615;SDS011;24370;51.986;4.666;2023-04-03T14:41:17;1.97;;;0.90;;
38615;SDS011;24370;51.986;4.666;2023-04-03T14:43:45;2.50;;;1.07;;
38615;SDS011;24370;51.986;4.666;2023-04-03T14:46:16;1.17;;;0.83;;
38615;SDS011;24370;51.986;4.666;2023-04-03T14:48:48;1.83;;;0.90;;
38615;SDS011;24370;51.986;4.666;2023-04-03T14:51:14;1.90;;;0.80;;
38615;SDS011;24370;51.986;4.666;2023-04-03T14:53:41;1.57;;;0.80;;
38615;SDS011;24370;51.986;4.666;2023-04-03T14:58:47;1.87;;;0.90;;
38615;SDS011;24370;51.986;4.666;2023-04-03T15:01:15;1.63;;;1.13;;
38615;SDS011;24370;51.986;4.666;2023-04-03T15:03:41;2.50;;;1.07;;
38615;SDS011;24370;51.986;4.666;2023-04-03T15:06:08;1.43;;;0.83;;
38615;SDS011;24370;51.986;4.666;2023-04-03T15:08:35;2.40;;;0.80;;
38615;SDS011;24370;51.986;4.666;2023-04-03T15:11:00;2.87;;;1.00;;
38615;SDS011;24370;51.986;4.666;2023-04-03T15:13:26;2.43;;;1.20;;
38615;SDS011;24370;51.986;4.666;2023-04-03T15:15:51;1.43;;;1.00;;
38615;SDS011;24370;51.986;4.666;2023-04-03T15:18:21;1.10;;;0.90;;
38615;SDS011;24370;51.986;4.666;2023-04-03T15:20:51;3.03;;;2.03;;
38615;SDS011;24370;51.986;4.666;2023-04-03T15:23:17;6.00;;;1.70;;
38615;SDS011;24370;51.986;4.666;2023-04-03T15:25:43;2.17;;;1.10;;
38615;SDS011;24370;51.986;4.666;2023-04-03T15:28:17;4.17;;;1.00;;
38615;SDS011;24370;51.986;4.666;2023-04-03T15:30:47;2.80;;;1.10;;
38615;SDS011;24370;51.986;4.666;2023-04-03T15:33:12;2.43;;;0.80;;
38615;SDS011;24370;51.986;4.666;2023-04-03T15:35:37;3.37;;;1.27;;
38615;SDS011;24370;51.986;4.666;2023-04-03T15:38:03;2.27;;;1.00;;
38615;SDS011;24370;51.986;4.666;2023-04-03T15:40:29;3.47;;;0.93;;
38615;SDS011;24370;51.986;4.666;2023-04-03T15:42:54;2.70;;;1.00;;
38615;SDS011;24370;51.986;4.666;2023-04-03T15:45:19;3.43;;;1.07;;
38615;SDS011;24370;51.986;4.666;2023-04-03T15:47:46;1.90;;;1.10;;
38615;SDS011;24370;51.986;4.666;2023-04-03T15:50:11;4.87;;;1.27;;
38615;SDS011;24370;51.986;4.666;2023-04-03T15:52:37;3.07;;;1.30;;
38615;SDS011;24370;51.986;4.666;2023-04-03T15:55:02;2.53;;;1.40;;
38615;SDS011;24370;51.986;4.666;2023-04-03T15:57:31;1.87;;;0.87;;
38615;SDS011;24370;51.986;4.666;2023-04-03T15:59:57;3.50;;;1.03;;
38615;SDS011;24370;51.986;4.666;2023-04-03T16:02:22;2.47;;;1.23;;
38615;SDS011;24370;51.986;4.666;2023-04-03T16:04:48;3.50;;;1.10;;
38615;SDS011;24370;51.986;4.666;2023-04-03T16:07:14;4.23;;;1.43;;
38615;SDS011;24370;51.986;4.666;2023-04-03T16:09:39;4.67;;;1.17;;
38615;SDS011;24370;51.986;4.666;2023-04-03T16:12:05;7.97;;;2.23;;
38615;SDS011;24370;51.986;4.666;2023-04-03T16:14:30;2.23;;;1.10;;
38615;SDS011;24370;51.986;4.666;2023-04-03T16:16:56;3.97;;;1.10;;
38615;SDS011;24370;51.986;4.666;2023-04-03T16:19:22;2.60;;;1.40;;
38615;SDS011;24370;51.986;4.666;2023-04-03T16:21:48;2.57;;;1.33;;
38615;SDS011;24370;51.986;4.666;2023-04-03T16:24:13;3.87;;;1.43;;
38615;SDS011;24370;51.986;4.666;2023-04-03T16:26:39;3.27;;;1.10;;
38615;SDS011;24370;51.986;4.666;2023-04-03T16:29:05;2.53;;;1.20;;
38615;SDS011;24370;51.986;4.666;2023-04-03T16:31:30;6.80;;;3.13;;
38615;SDS011;24370;51.986;4.666;2023-04-03T16:33:57;4.07;;;0.93;;
38615;SDS011;24370;51.986;4.666;2023-04-03T16:36:23;2.60;;;1.20;;
38615;SDS011;24370;51.986;4.666;2023-04-03T16:38:50;1.47;;;0.97;;
38615;SDS011;24370;51.986;4.666;2023-04-03T16:41:15;3.13;;;1.10;;
38615;SDS011;24370;51.986;4.666;2023-04-03T16:43:41;2.23;;;1.30;;
38615;SDS011;24370;51.986;4.666;2023-04-03T16:46:06;2.77;;;1.00;;
38615;SDS011;24370;51.986;4.666;2023-04-03T16:48:31;5.73;;;1.20;;
38615;SDS011;24370;51.986;4.666;2023-04-03T16:50:57;2.30;;;1.20;;
38615;SDS011;24370;51.986;4.666;2023-04-03T16:53:23;2.27;;;0.90;;
38615;SDS011;24370;51.986;4.666;2023-04-03T16:55:50;8.33;;;1.47;;
38615;SDS011;24370;51.986;4.666;2023-04-03T16:58:15;3.73;;;1.30;;